createdAt,value
2022-12-23T00:01:31.093Z,8.35
2022-12-23T00:04:32.590Z,8.33
2022-12-23T00:07:34.384Z,8.34
2022-12-23T00:10:39.976Z,8.38
2022-12-23T00:13:41.559Z,8.37
2022-12-23T00:16:43.118Z,8.37
2022-12-23T00:19:44.659Z,8.36
2022-12-23T00:22:46.253Z,8.35
2022-12-23T00:25:47.943Z,8.34
2022-12-23T00:28:50.428Z,8.36
2022-12-23T00:31:52.037Z,8.26
2022-12-23T00:34:53.735Z,8.20
2022-12-23T00:37:55.283Z,8.17
2022-12-23T00:40:56.806Z,8.20
2022-12-23T00:43:58.748Z,8.24
2022-12-23T00:47:00.295Z,8.21
2022-12-23T00:50:01.809Z,8.21
2022-12-23T00:53:03.891Z,8.22
2022-12-23T00:56:05.698Z,8.21
2022-12-23T00:59:07.268Z,8.20
2022-12-23T01:02:11.625Z,8.22
2022-12-23T01:05:13.361Z,8.22
2022-12-23T01:08:14.946Z,8.25
2022-12-23T01:11:16.535Z,8.22
2022-12-23T01:14:18.169Z,8.20
2022-12-23T01:17:20.032Z,8.19
2022-12-23T01:20:21.702Z,8.20
2022-12-23T01:23:23.203Z,8.19
2022-12-23T01:26:24.721Z,8.17
2022-12-23T01:29:27.336Z,8.18
2022-12-23T01:32:29.103Z,8.20
2022-12-23T01:35:30.793Z,8.15
2022-12-23T01:38:33.115Z,8.12
2022-12-23T01:41:34.804Z,8.10
2022-12-23T01:44:58.164Z,8.07
2022-12-23T01:48:24.784Z,8.09
2022-12-23T01:51:29.866Z,8.07
2022-12-23T01:54:32.192Z,8.06
2022-12-23T01:57:35.617Z,8.04
2022-12-23T02:00:41.291Z,8.00
2022-12-23T02:03:44.455Z,8.00
2022-12-23T02:06:49.825Z,7.97
2022-12-23T02:09:54.332Z,7.98
2022-12-23T02:13:11.780Z,7.95
2022-12-23T02:16:15.086Z,7.96
2022-12-23T02:19:38.356Z,7.94
2022-12-23T02:23:07.830Z,7.95
2022-12-23T02:26:34.348Z,7.96
2022-12-23T02:29:57.531Z,7.93
2022-12-23T02:33:18.374Z,7.93
2022-12-23T02:36:50.779Z,7.91
2022-12-23T02:40:07.561Z,7.91
2022-12-23T02:43:19.081Z,7.87
2022-12-23T02:46:23.494Z,7.86
2022-12-23T02:49:38.222Z,7.83
2022-12-23T02:52:43.513Z,7.83
2022-12-23T02:55:48.593Z,7.82
2022-12-23T02:59:01.579Z,7.80
2022-12-23T03:02:03.336Z,7.78
2022-12-23T03:05:06.179Z,7.74
2022-12-23T03:08:36.508Z,7.71
2022-12-23T03:11:38.050Z,7.64
2022-12-23T03:15:02.849Z,7.61
2022-12-23T03:18:16.560Z,7.56
2022-12-23T03:21:32.119Z,7.50
2022-12-23T03:24:49.156Z,7.46
2022-12-23T03:28:15.588Z,7.45
2022-12-23T03:31:22.514Z,7.44
2022-12-23T03:34:28.306Z,7.44
2022-12-23T03:37:34.107Z,7.44
2022-12-23T03:40:41.407Z,7.44
2022-12-23T03:43:52.939Z,7.42
2022-12-23T03:47:09.612Z,7.40
2022-12-23T03:50:14.445Z,7.38
2022-12-23T03:53:25.785Z,7.37
2022-12-23T03:56:41.934Z,7.38
2022-12-23T03:59:47.057Z,7.37
2022-12-23T04:03:03.346Z,7.43
2022-12-23T04:06:07.811Z,7.37
2022-12-23T04:09:11.571Z,7.38
2022-12-23T04:12:15.154Z,7.35
2022-12-23T04:15:25.526Z,7.36
2022-12-23T04:18:27.720Z,7.37
2022-12-23T04:21:29.252Z,7.35
2022-12-23T04:24:30.858Z,7.35
2022-12-23T04:27:32.346Z,7.36
2022-12-23T04:30:35.023Z,7.37
2022-12-23T04:33:36.806Z,7.36
2022-12-23T04:36:38.360Z,7.37
2022-12-23T04:39:39.914Z,7.32
2022-12-23T04:42:41.581Z,7.31
2022-12-23T04:45:43.144Z,7.31
2022-12-23T04:48:44.741Z,7.32
2022-12-23T04:51:46.263Z,7.34
2022-12-23T04:54:47.868Z,7.33
2022-12-23T04:57:49.449Z,7.32
2022-12-23T05:01:05.025Z,7.32
2022-12-23T05:04:06.609Z,7.32
2022-12-23T05:07:08.142Z,7.30
2022-12-23T05:10:10.301Z,7.31
2022-12-23T05:13:11.988Z,7.28
2022-12-23T05:16:13.650Z,7.27
2022-12-23T05:19:15.502Z,7.25
2022-12-23T05:22:16.989Z,7.26
2022-12-23T05:25:18.570Z,7.27
2022-12-23T05:28:21.679Z,7.28
2022-12-23T05:31:23.200Z,7.28
2022-12-23T05:34:24.818Z,7.27
2022-12-23T05:37:26.379Z,7.27
2022-12-23T05:40:29.140Z,7.25
2022-12-23T05:43:33.367Z,7.26
2022-12-23T05:46:34.984Z,7.29
2022-12-23T05:49:36.751Z,7.30
2022-12-23T05:52:38.606Z,7.29
2022-12-23T05:55:40.051Z,7.30
2022-12-23T05:58:41.631Z,7.32
2022-12-23T06:01:43.258Z,7.34
2022-12-23T06:04:44.847Z,7.35
2022-12-23T06:07:46.436Z,7.32
2022-12-23T06:10:48.164Z,7.32
2022-12-23T06:13:49.597Z,7.32
2022-12-23T06:16:51.206Z,7.31
2022-12-23T06:19:52.695Z,7.32
2022-12-23T06:22:54.258Z,7.28
2022-12-23T06:26:05.767Z,7.27
2022-12-23T06:29:07.301Z,7.23
2022-12-23T06:32:09.101Z,7.23
2022-12-23T06:35:10.620Z,7.20
2022-12-23T06:38:12.529Z,7.21
2022-12-23T06:41:13.978Z,7.21
2022-12-23T06:44:15.762Z,7.23
2022-12-23T06:47:17.401Z,7.23
2022-12-23T06:50:18.907Z,7.24
2022-12-23T06:53:20.410Z,7.25
2022-12-23T06:56:22.002Z,7.27
2022-12-23T06:59:23.583Z,7.28
2022-12-23T07:02:25.253Z,7.28
2022-12-23T07:05:31.911Z,7.28
2022-12-23T07:08:36.751Z,7.29
2022-12-23T07:11:38.368Z,7.30
2022-12-23T07:14:39.971Z,7.32
2022-12-23T07:17:41.436Z,7.31
2022-12-23T07:20:42.936Z,7.31
2022-12-23T07:23:44.515Z,7.28
2022-12-23T07:26:46.083Z,7.29
2022-12-23T07:29:47.620Z,7.29
2022-12-23T07:32:50.610Z,7.27
2022-12-23T07:35:52.135Z,7.27
2022-12-23T07:38:53.642Z,7.27
2022-12-23T07:42:16.611Z,7.26
2022-12-23T07:45:17.131Z,7.27
2022-12-23T07:48:18.736Z,7.26
2022-12-23T07:51:20.241Z,7.26
2022-12-23T07:54:21.760Z,7.27
2022-12-23T07:57:23.356Z,7.27
2022-12-23T08:00:25.027Z,7.28
2022-12-23T08:03:26.630Z,7.28
2022-12-23T08:06:28.190Z,7.29
2022-12-23T08:09:29.718Z,7.30
2022-12-23T08:12:31.281Z,7.31
2022-12-23T08:15:32.822Z,7.31
2022-12-23T08:18:36.765Z,7.34
2022-12-23T08:21:38.233Z,7.35
2022-12-23T08:24:39.767Z,7.37
2022-12-23T08:27:41.300Z,7.41
2022-12-23T08:30:43.024Z,7.42
2022-12-23T08:33:47.362Z,7.44
2022-12-23T08:36:49.111Z,7.43
2022-12-23T08:39:50.605Z,7.42
2022-12-23T08:42:52.123Z,7.43
2022-12-23T08:45:53.945Z,7.44
2022-12-23T08:48:55.981Z,7.39
2022-12-23T08:51:57.557Z,7.35
2022-12-23T08:54:59.054Z,7.42
2022-12-23T08:58:00.592Z,7.42
2022-12-23T09:01:07.242Z,7.43
2022-12-23T09:04:09.373Z,7.43
2022-12-23T09:07:10.850Z,7.46
2022-12-23T09:10:12.290Z,7.48
2022-12-23T09:13:19.942Z,7.50
2022-12-23T09:16:27.707Z,7.52
2022-12-23T09:19:29.241Z,7.54
2022-12-23T09:22:32.870Z,7.53
2022-12-23T09:25:35.980Z,7.55
2022-12-23T09:28:37.670Z,7.56
2022-12-23T09:31:39.442Z,7.59
2022-12-23T09:34:40.992Z,7.61
2022-12-23T09:37:42.870Z,7.61
2022-12-23T09:40:44.358Z,7.64
2022-12-23T09:43:54.765Z,7.66
2022-12-23T09:47:05.903Z,7.69
2022-12-23T09:50:28.449Z,7.72
2022-12-23T09:53:46.242Z,7.74
2022-12-23T09:56:57.512Z,7.75
2022-12-23T10:00:05.224Z,7.76
2022-12-23T10:03:32.533Z,7.75
2022-12-23T10:06:35.685Z,7.80
2022-12-23T10:09:40.985Z,7.82
2022-12-23T10:12:46.945Z,7.83
2022-12-23T10:15:51.447Z,7.86
2022-12-23T10:19:06.714Z,7.84
2022-12-23T10:22:30.050Z,7.85
2022-12-23T10:25:44.181Z,7.85
2022-12-23T10:28:45.647Z,7.83
2022-12-23T10:32:04.039Z,7.79
2022-12-23T10:35:33.061Z,7.78
2022-12-23T10:38:34.499Z,7.75
2022-12-23T10:41:43.463Z,7.73
2022-12-23T10:45:14.415Z,7.73
2022-12-23T10:48:37.714Z,7.71
2022-12-23T10:51:57.094Z,7.73
2022-12-23T10:54:58.649Z,7.76
2022-12-23T10:58:07.573Z,7.78
2022-12-23T11:01:18.922Z,7.77
2022-12-23T11:04:38.461Z,7.80
2022-12-23T11:07:45.138Z,7.79
2022-12-23T11:10:48.168Z,7.76
2022-12-23T11:13:49.764Z,7.78
2022-12-23T11:16:51.468Z,7.77
2022-12-23T11:20:16.497Z,7.77
2022-12-23T11:23:27.363Z,7.78
2022-12-23T11:26:28.966Z,7.76
2022-12-23T11:29:36.666Z,7.74
2022-12-23T11:32:38.443Z,7.73
2022-12-23T11:35:40.118Z,7.73
2022-12-23T11:38:53.914Z,7.75
2022-12-23T11:42:04.617Z,7.76
2022-12-23T11:45:07.801Z,7.76
2022-12-23T11:48:27.927Z,7.78
2022-12-23T11:51:29.534Z,7.77
2022-12-23T11:54:33.619Z,7.76
2022-12-23T11:57:44.824Z,7.78
2022-12-23T12:00:55.877Z,7.78
2022-12-23T12:04:01.924Z,7.79
2022-12-23T12:07:06.208Z,7.79
2022-12-23T12:10:15.243Z,7.81
2022-12-23T12:13:22.786Z,7.79
2022-12-23T12:16:46.544Z,7.77
2022-12-23T12:20:00.562Z,7.80
2022-12-23T12:23:17.970Z,7.76
2022-12-23T12:26:32.725Z,7.76
2022-12-23T12:29:43.463Z,7.77
2022-12-23T12:32:59.328Z,7.76
2022-12-23T12:36:13.299Z,7.74
2022-12-23T12:39:28.501Z,7.77
2022-12-23T12:42:40.431Z,7.85
2022-12-23T12:45:50.174Z,7.94
2022-12-23T12:48:59.273Z,7.91
2022-12-23T12:52:11.763Z,7.91
2022-12-23T12:55:27.573Z,7.88
2022-12-23T12:58:29.186Z,7.84
2022-12-23T13:01:52.756Z,7.83
2022-12-23T13:05:19.504Z,7.78
2022-12-23T13:08:52.297Z,7.76
2022-12-23T13:12:24.637Z,7.75
2022-12-23T13:15:54.412Z,7.72
2022-12-23T13:18:58.945Z,7.70
2022-12-23T13:22:15.857Z,7.67
2022-12-23T13:25:27.791Z,7.66
2022-12-23T13:28:29.298Z,7.65
2022-12-23T13:31:47.677Z,7.66
2022-12-23T13:35:02.865Z,7.72
2022-12-23T13:38:16.494Z,7.78
2022-12-23T13:41:30.150Z,7.81
2022-12-23T13:44:34.412Z,7.88
2022-12-23T13:48:05.617Z,8.07
2022-12-23T13:51:26.645Z,8.22
2022-12-23T13:54:46.639Z,8.33
2022-12-23T13:58:13.196Z,8.32
2022-12-23T14:01:14.720Z,8.26
2022-12-23T14:05:02.224Z,8.21
2022-12-23T14:08:07.182Z,8.12
2022-12-23T14:11:08.639Z,8.05
2022-12-23T14:14:19.908Z,8.09
2022-12-23T14:17:31.654Z,8.09
2022-12-23T14:21:11.451Z,8.10
2022-12-23T14:24:31.267Z,8.14
2022-12-23T14:27:49.515Z,8.12
2022-12-23T14:30:51.213Z,8.08
2022-12-23T14:33:52.937Z,8.08
2022-12-23T14:37:16.092Z,8.07
2022-12-23T14:40:39.469Z,8.00
2022-12-23T14:43:43.968Z,7.97
2022-12-23T14:46:45.583Z,7.95
2022-12-23T14:49:47.522Z,7.92
2022-12-23T14:52:59.557Z,7.90
2022-12-23T14:56:16.256Z,7.91
2022-12-23T14:59:37.359Z,7.92
2022-12-23T15:02:40.732Z,7.92
2022-12-23T15:05:43.494Z,7.88
2022-12-23T15:08:47.251Z,7.88
2022-12-23T15:11:50.407Z,7.96
2022-12-23T15:14:59.058Z,7.92
2022-12-23T15:18:05.745Z,7.92
2022-12-23T15:21:11.226Z,7.92
2022-12-23T15:24:18.153Z,7.90
2022-12-23T15:27:29.626Z,7.86
2022-12-23T15:30:45.978Z,7.84
2022-12-23T15:34:04.858Z,7.82
2022-12-23T15:37:24.511Z,7.81
2022-12-23T15:40:29.982Z,7.81
2022-12-23T15:43:32.122Z,7.84
2022-12-23T15:46:33.703Z,7.91
2022-12-23T15:49:35.266Z,7.88
2022-12-23T15:52:40.961Z,7.87
2022-12-23T15:55:43.249Z,7.84
2022-12-23T15:58:44.945Z,7.82
2022-12-23T16:01:46.697Z,7.85
2022-12-23T16:04:54.207Z,7.86
2022-12-23T16:08:14.568Z,7.84
2022-12-23T16:11:18.981Z,7.84
2022-12-23T16:14:36.387Z,7.82
2022-12-23T16:17:38.562Z,7.83
2022-12-23T16:20:46.196Z,7.83
2022-12-23T16:23:51.648Z,7.80
2022-12-23T16:26:54.251Z,7.80
2022-12-23T16:29:57.873Z,7.82
2022-12-23T16:33:01.806Z,7.78
2022-12-23T16:36:27.012Z,7.77
2022-12-23T16:39:28.574Z,7.76
2022-12-23T16:42:30.091Z,7.77
2022-12-23T16:45:33.299Z,7.81
2022-12-23T16:48:58.913Z,7.80
2022-12-23T16:52:00.906Z,7.83
2022-12-23T16:55:02.634Z,7.88
2022-12-23T16:58:04.151Z,7.87
2022-12-23T17:01:05.945Z,7.90
2022-12-23T17:04:07.919Z,7.97
2022-12-23T17:07:12.153Z,8.09
2022-12-23T17:10:14.880Z,8.32
2022-12-23T17:13:18.545Z,8.46
2022-12-23T17:16:22.393Z,8.65
2022-12-23T17:19:29.424Z,8.75
2022-12-23T17:22:34.144Z,8.79
2022-12-23T17:25:35.639Z,8.83
2022-12-23T17:28:37.215Z,8.89
2022-12-23T17:31:40.507Z,8.93
2022-12-23T17:34:42.074Z,8.99
2022-12-23T17:37:43.620Z,9.09
2022-12-23T17:40:48.025Z,9.14
2022-12-23T17:43:49.971Z,9.19
2022-12-23T17:46:51.455Z,9.21
2022-12-23T17:49:53.273Z,9.27
2022-12-23T17:52:54.838Z,9.30
2022-12-23T17:55:56.391Z,9.31
2022-12-23T17:58:58.375Z,9.35
2022-12-23T18:01:59.983Z,9.31
2022-12-23T18:05:02.753Z,9.35
2022-12-23T18:08:04.408Z,9.30
2022-12-23T18:11:06.866Z,9.28
2022-12-23T18:14:16.383Z,9.23
2022-12-23T18:17:18.431Z,9.18
2022-12-23T18:20:22.553Z,9.19
2022-12-23T18:23:28.980Z,9.21
2022-12-23T18:26:30.575Z,9.26
2022-12-23T18:29:32.055Z,9.26
2022-12-23T18:32:35.381Z,9.28
2022-12-23T18:35:45.755Z,9.26
2022-12-23T18:38:47.578Z,9.24
2022-12-23T18:41:49.086Z,9.21
2022-12-23T18:44:50.597Z,9.21
2022-12-23T18:47:52.141Z,9.21
2022-12-23T18:50:53.672Z,9.25
2022-12-23T18:53:55.167Z,9.24
2022-12-23T18:57:00.016Z,9.31
2022-12-23T19:00:01.699Z,9.35
2022-12-23T19:03:03.250Z,9.37
2022-12-23T19:06:06.930Z,9.34
2022-12-23T19:09:14.233Z,9.31
2022-12-23T19:12:15.711Z,9.34
2022-12-23T19:15:17.397Z,9.33
2022-12-23T19:18:21.489Z,9.33
2022-12-23T19:21:23.020Z,9.31
2022-12-23T19:24:24.603Z,9.29
2022-12-23T19:27:26.158Z,9.25
2022-12-23T19:30:27.928Z,9.31
2022-12-23T19:33:32.309Z,9.30
2022-12-23T19:36:33.951Z,9.30
2022-12-23T19:39:35.426Z,9.31
2022-12-23T19:42:38.605Z,9.35
2022-12-23T19:45:40.182Z,9.31
2022-12-23T19:48:41.953Z,9.39
2022-12-23T19:51:43.632Z,9.41
2022-12-23T19:54:45.230Z,9.42
2022-12-23T19:57:46.733Z,9.45
2022-12-23T20:00:48.246Z,9.43
2022-12-23T20:03:50.697Z,9.47
2022-12-23T20:06:52.235Z,9.46
2022-12-23T20:09:53.743Z,9.45
2022-12-23T20:12:55.332Z,9.43
2022-12-23T20:15:57.057Z,9.43
2022-12-23T20:18:58.787Z,9.43
2022-12-23T20:22:00.318Z,9.43
2022-12-23T20:25:01.841Z,9.42
2022-12-23T20:28:03.416Z,9.42
2022-12-23T20:31:08.539Z,9.35
2022-12-23T20:34:14.803Z,9.36
2022-12-23T20:37:16.304Z,9.33
2022-12-23T20:40:18.227Z,9.34
2022-12-23T20:43:19.962Z,9.38
2022-12-23T20:46:21.904Z,9.35
2022-12-23T20:49:23.491Z,9.28
2022-12-23T20:52:25.047Z,9.30
2022-12-23T20:55:26.502Z,9.28
2022-12-23T20:58:28.028Z,9.26
2022-12-23T21:01:35.696Z,9.25
2022-12-23T21:04:37.300Z,9.24
2022-12-23T21:07:38.751Z,9.20
2022-12-23T21:10:40.300Z,9.19
2022-12-23T21:13:41.858Z,9.17
2022-12-23T21:16:43.598Z,9.26
2022-12-23T21:19:45.222Z,9.21
2022-12-23T21:22:46.690Z,9.21
2022-12-23T21:25:48.215Z,9.19
2022-12-23T21:28:51.793Z,9.20
2022-12-23T21:31:53.344Z,9.22
2022-12-23T21:34:54.890Z,9.18
2022-12-23T21:37:56.356Z,9.16
2022-12-23T21:41:02.577Z,9.13
2022-12-23T21:44:05.163Z,9.09
2022-12-23T21:47:06.747Z,9.06
2022-12-23T21:50:09.020Z,9.05
2022-12-23T21:53:10.521Z,9.02
2022-12-23T21:56:14.888Z,8.95
2022-12-23T21:59:16.373Z,8.86
2022-12-23T22:02:18.048Z,8.85
2022-12-23T22:05:19.553Z,8.84
2022-12-23T22:08:21.171Z,8.86
2022-12-23T22:11:25.548Z,8.80
2022-12-23T22:14:27.055Z,8.76
2022-12-23T22:17:28.557Z,8.76
2022-12-23T22:20:30.052Z,8.71
2022-12-23T22:23:31.602Z,8.69
2022-12-23T22:26:33.302Z,8.68
2022-12-23T22:29:34.826Z,8.70
2022-12-23T22:32:42.145Z,8.64
2022-12-23T22:35:52.840Z,8.60
2022-12-23T22:38:59.210Z,8.53
2022-12-23T22:42:00.693Z,8.58
2022-12-23T22:45:02.526Z,8.54
2022-12-23T22:48:04.252Z,8.57
2022-12-23T22:51:10.665Z,8.65
2022-12-23T22:54:13.205Z,8.58
2022-12-23T22:57:14.733Z,8.74
2022-12-23T23:00:16.461Z,8.74
2022-12-23T23:03:17.936Z,8.68
2022-12-23T23:06:19.536Z,8.72
2022-12-23T23:09:22.370Z,8.73
2022-12-23T23:12:23.828Z,8.62
2022-12-23T23:15:25.382Z,8.63
2022-12-23T23:18:27.742Z,8.58
2022-12-23T23:21:29.340Z,8.58
2022-12-23T23:24:31.472Z,8.57
2022-12-23T23:27:33.301Z,8.61
2022-12-23T23:30:36.146Z,8.63
2022-12-23T23:33:37.841Z,8.67
2022-12-23T23:36:40.056Z,8.70
2022-12-23T23:39:41.582Z,8.70
2022-12-23T23:42:43.040Z,8.75
2022-12-23T23:45:44.522Z,8.75
2022-12-23T23:48:47.472Z,8.68
2022-12-23T23:51:49.013Z,8.68
2022-12-23T23:54:50.445Z,8.59
2022-12-23T23:57:51.927Z,8.48
